Time;durP1;ratioP1;P1;durP2;ratioP2;P2;SDS_P1;SDS_P2;PMS_P1;PMS_P2;Temp;Humidity;BMP_temperature;BMP_pressure;BME280_temperature;BME280_humidity;BME280_pressure;Samples;Min_cycle;Max_cycle;Signal;HPM_P1;HPM_P2
2022/06/26 00:00:19;;;;;;;3.95;2.70;;;19.00;91.90;;;;;;2067687;28;20097;-94
2022/06/26 00:01:39;;;;;;;4.32;3.00;;;19.10;92.00;;;;;;2072814;28;20082;-95
2022/06/26 00:02:59;;;;;;;4.05;2.75;;;19.00;92.00;;;;;;2092308;28;20044;-94
2022/06/26 00:04:18;;;;;;;4.13;2.88;;;19.10;92.00;;;;;;2089844;28;20055;-93
2022/06/26 00:05:38;;;;;;;4.18;2.90;;;19.10;92.00;;;;;;2078645;28;20026;-95
2022/06/26 00:06:59;;;;;;;4.53;2.70;;;19.10;92.10;;;;;;2083751;28;20029;-94
2022/06/26 00:08:18;;;;;;;3.72;2.85;;;19.10;92.10;;;;;;2084492;28;20042;-93
2022/06/26 00:09:37;;;;;;;4.88;3.20;;;19.00;92.10;;;;;;2087264;28;20033;-95
2022/06/26 00:10:57;;;;;;;4.00;2.65;;;19.00;92.10;;;;;;2079060;28;20037;-94
2022/06/26 00:12:16;;;;;;;4.28;2.85;;;19.00;92.20;;;;;;2075686;28;20033;-94
2022/06/26 00:13:35;;;;;;;3.80;2.80;;;19.00;92.20;;;;;;2083804;28;20112;-95
2022/06/26 00:14:54;;;;;;;4.40;2.90;;;19.00;92.30;;;;;;2081791;28;20029;-94
2022/06/26 00:16:13;;;;;;;4.80;3.15;;;18.90;92.30;;;;;;2078943;28;20038;-94
2022/06/26 00:17:33;;;;;;;4.47;3.00;;;18.90;92.30;;;;;;2069978;28;20033;-94
2022/06/26 00:18:52;;;;;;;3.78;2.58;;;18.90;92.30;;;;;;2089350;28;20025;-95
2022/06/26 00:20:12;;;;;;;4.05;2.72;;;18.90;92.40;;;;;;2088681;28;20037;-95
2022/06/26 00:21:31;;;;;;;4.32;2.85;;;18.90;92.40;;;;;;2077200;28;20065;-93
2022/06/26 00:22:50;;;;;;;4.95;2.72;;;18.90;92.40;;;;;;2079971;28;20046;-92
2022/06/26 00:24:10;;;;;;;5.05;2.78;;;18.90;92.50;;;;;;2068909;28;20030;-92
2022/06/26 00:25:31;;;;;;;4.15;2.72;;;18.90;92.50;;;;;;2069950;28;20034;-94
2022/06/26 00:29:34;;;;;;;3.92;2.75;;;18.90;92.60;;;;;;2101791;28;20037;-85
2022/06/26 00:30:55;;;;;;;3.75;2.63;;;18.80;92.70;;;;;;2101250;28;20084;-96
2022/06/26 00:32:14;;;;;;;4.63;3.28;;;18.70;92.80;;;;;;2084501;28;20022;-88
2022/06/26 00:33:34;;;;;;;4.15;2.92;;;18.70;93.00;;;;;;2101702;28;20033;-96
2022/06/26 00:34:53;;;;;;;4.20;2.80;;;18.70;93.00;;;;;;2114982;28;20012;-96
2022/06/26 00:36:12;;;;;;;5.25;3.10;;;18.70;93.10;;;;;;2106646;28;20028;-90
2022/06/26 00:37:31;;;;;;;4.20;3.00;;;18.60;93.10;;;;;;2115083;28;20036;-90
2022/06/26 00:38:52;;;;;;;4.60;2.92;;;18.70;93.20;;;;;;2118307;28;20115;-88
2022/06/26 00:40:11;;;;;;;;;;;18.60;93.30;;;;;;2115488;28;20028;-96
2022/06/26 00:41:31;;;;;;;4.45;2.85;;;18.60;93.20;;;;;;2118334;28;19912;-96
2022/06/26 00:42:50;;;;;;;5.22;2.80;;;18.60;93.30;;;;;;2118007;28;20024;-80
2022/06/26 00:44:21;;;;;;;3.95;3.10;;;18.60;93.40;;;;;;2114926;28;20075;-91
2022/06/26 00:45:40;;;;;;;3.92;3.00;;;18.60;93.40;;;;;;2116629;28;20024;-89
2022/06/26 00:46:59;;;;;;;5.03;3.25;;;18.60;93.50;;;;;;2114958;28;20008;-86
2022/06/26 00:48:19;;;;;;;4.18;3.17;;;18.60;93.50;;;;;;2114867;28;20024;-94
2022/06/26 00:49:38;;;;;;;5.15;3.13;;;18.60;93.60;;;;;;2114907;28;20064;-90
2022/06/26 00:50:58;;;;;;;4.07;3.08;;;18.50;93.60;;;;;;2114834;28;20024;-95
2022/06/26 00:52:19;;;;;;;6.18;3.17;;;18.60;93.70;;;;;;2118303;28;20028;-83
2022/06/26 00:53:38;;;;;;;4.97;3.35;;;18.60;93.70;;;;;;2118288;28;20016;-84
2022/06/26 00:54:57;;;;;;;4.80;3.08;;;18.50;93.80;;;;;;2109638;28;20017;-96
2022/06/26 00:56:18;;;;;;;4.10;3.15;;;18.50;93.80;;;;;;2114574;28;20131;-93
2022/06/26 00:57:37;;;;;;;4.10;3.20;;;18.60;93.90;;;;;;2106109;28;20033;-96
2022/06/26 00:58:57;;;;;;;4.80;3.50;;;18.50;93.90;;;;;;2113943;28;20024;-90
2022/06/26 01:00:20;;;;;;;5.20;3.58;;;18.50;94.00;;;;;;2117595;28;20028;-96
2022/06/26 01:01:39;;;;;;;4.28;3.22;;;18.50;94.00;;;;;;2118000;28;20024;-94
2022/06/26 01:02:59;;;;;;;4.95;3.08;;;18.50;94.00;;;;;;2117914;28;20013;-91
2022/06/26 01:04:18;;;;;;;4.63;3.40;;;18.50;94.10;;;;;;2114847;28;20020;-83
2022/06/26 01:05:39;;;;;;;4.82;3.20;;;18.50;94.10;;;;;;2109625;28;20028;-80
2022/06/26 01:07:00;;;;;;;4.40;3.30;;;18.60;94.10;;;;;;2111951;28;20020;-94
2022/06/26 01:08:20;;;;;;;4.32;3.15;;;18.60;94.40;;;;;;2117696;28;20039;-96
2022/06/26 01:09:40;;;;;;;5.13;3.30;;;18.50;94.10;;;;;;2099973;28;20057;-96
2022/06/26 01:10:59;;;;;;;4.45;3.50;;;18.50;94.10;;;;;;2102310;28;20231;-96
2022/06/26 01:12:19;;;;;;;6.22;3.70;;;18.50;94.20;;;;;;2110453;28;20012;-96
2022/06/26 01:13:38;;;;;;;6.32;3.40;;;18.50;94.20;;;;;;2105241;28;20012;-96
2022/06/26 01:14:59;;;;;;;4.28;3.20;;;18.50;94.20;;;;;;2110841;28;20020;-96
2022/06/26 01:16:20;;;;;;;6.20;3.17;;;18.50;94.30;;;;;;2106260;28;20028;-96
2022/06/26 01:17:40;;;;;;;5.38;3.65;;;18.50;94.30;;;;;;2114773;28;20032;-90
2022/06/26 01:19:01;;;;;;;4.28;3.22;;;18.50;94.30;;;;;;2118086;28;20033;-95
2022/06/26 01:20:21;;;;;;;4.78;3.42;;;18.50;94.40;;;;;;2117864;28;20060;-96
2022/06/26 01:21:40;;;;;;;4.28;3.22;;;18.50;94.40;;;;;;2118092;28;20020;-95
2022/06/26 01:23:05;;;;;;;4.43;3.47;;;18.50;94.40;;;;;;2118019;28;20028;-96
2022/06/26 01:24:24;;;;;;;4.45;3.63;;;18.50;94.50;;;;;;2116053;28;20016;-96
2022/06/26 01:25:47;;;;;;;4.80;3.55;;;18.50;94.70;;;;;;2105034;28;20041;-96
2022/06/26 01:27:07;;;;;;;4.70;3.65;;;18.50;94.50;;;;;;2111210;28;20056;-96
2022/06/26 01:28:26;;;;;;;6.05;3.85;;;18.50;94.50;;;;;;2117641;28;20032;-96
2022/06/26 01:29:46;;;;;;;5.40;3.70;;;18.60;94.50;;;;;;2117205;28;20059;-96
2022/06/26 01:31:05;;;;;;;5.47;3.85;;;18.50;94.50;;;;;;2117858;28;20028;-96
2022/06/26 01:32:24;;;;;;;6.80;4.07;;;18.60;94.60;;;;;;2113997;28;20040;-95
2022/06/26 01:33:44;;;;;;;4.63;3.50;;;18.60;94.60;;;;;;2114245;28;20048;-94
2022/06/26 01:35:03;;;;;;;4.82;3.95;;;18.50;94.70;;;;;;2100480;28;20032;-95
2022/06/26 01:36:22;;;;;;;5.18;4.07;;;18.50;94.50;;;;;;2097416;28;20425;-95
2022/06/26 01:37:41;;;;;;;5.35;3.70;;;18.50;94.50;;;;;;2091678;28;20045;-95
2022/06/26 01:39:00;;;;;;;5.20;3.75;;;18.50;94.60;;;;;;2093274;28;20107;-94
2022/06/26 01:40:20;;;;;;;5.00;3.75;;;18.50;94.50;;;;;;2096561;28;20029;-95
2022/06/26 01:41:39;;;;;;;4.90;3.80;;;18.50;94.70;;;;;;2088667;28;20091;-96
2022/06/26 01:42:59;;;;;;;5.20;3.97;;;18.50;94.70;;;;;;2093616;28;20025;-95
2022/06/26 01:44:19;;;;;;;5.05;4.10;;;18.50;94.70;;;;;;2097232;28;20044;-96
2022/06/26 01:45:43;;;;;;;5.57;4.22;;;18.50;94.70;;;;;;2096409;28;20032;-94
2022/06/26 01:47:03;;;;;;;5.40;4.00;;;18.50;94.80;;;;;;2106851;28;20024;-96
2022/06/26 01:48:26;;;;;;;5.70;3.90;;;18.50;94.80;;;;;;2108268;28;20040;-85
2022/06/26 01:49:46;;;;;;;4.55;3.80;;;18.50;94.80;;;;;;2115217;28;20008;-82
2022/06/26 01:51:07;;;;;;;5.32;4.18;;;18.50;94.80;;;;;;2109747;28;20032;-86
2022/06/26 01:52:26;;;;;;;6.63;3.85;;;18.40;94.80;;;;;;2105949;28;20013;-95
2022/06/26 01:53:45;;;;;;;5.50;3.97;;;18.40;94.80;;;;;;2100383;28;20028;-94
2022/06/26 01:55:05;;;;;;;5.40;4.25;;;18.40;94.90;;;;;;2102286;28;20028;-95
2022/06/26 01:56:25;;;;;;;6.07;4.07;;;18.40;94.90;;;;;;2097277;28;20036;-95
2022/06/26 01:57:45;;;;;;;5.72;4.18;;;18.40;94.90;;;;;;2080161;28;20034;-94
2022/06/26 01:59:04;;;;;;;5.10;3.97;;;18.40;94.90;;;;;;2082014;28;20029;-93
2022/06/26 02:00:23;;;;;;;5.28;4.38;;;18.40;94.90;;;;;;2084855;28;20367;-94
2022/06/26 02:01:43;;;;;;;5.22;4.32;;;18.40;94.90;;;;;;2079894;28;20096;-93
2022/06/26 02:03:03;;;;;;;5.50;4.20;;;18.40;94.90;;;;;;2084950;28;20052;-93
2022/06/26 02:04:22;;;;;;;5.65;4.20;;;18.40;94.90;;;;;;2084687;28;20037;-95
2022/06/26 02:05:42;;;;;;;5.40;4.22;;;18.40;94.90;;;;;;2092732;28;20044;-94
2022/06/26 02:07:01;;;;;;;4.80;4.05;;;18.40;94.90;;;;;;2090829;28;20030;-93
2022/06/26 02:08:20;;;;;;;5.30;4.18;;;18.40;95.00;;;;;;2084655;28;20115;-93
2022/06/26 02:14:33;;;;;;;5.07;4.00;;;18.30;95.00;;;;;;2094055;28;20033;-94
2022/06/26 02:15:54;;;;;;;5.22;3.72;;;18.30;94.90;;;;;;2084246;28;20041;-94
2022/06/26 02:17:13;;;;;;;4.40;3.67;;;18.20;95.20;;;;;;2092385;28;20048;-95
2022/06/26 02:18:33;;;;;;;5.47;4.05;;;18.30;95.00;;;;;;2085945;28;20104;-94
2022/06/26 02:19:52;;;;;;;4.90;3.97;;;18.20;95.00;;;;;;2093336;28;20036;-93
2022/06/26 02:21:16;;;;;;;5.55;4.30;;;18.20;95.00;;;;;;2087716;28;20032;-94
2022/06/26 02:22:35;;;;;;;5.43;4.15;;;18.20;95.10;;;;;;2101973;28;20063;-94
2022/06/26 02:23:56;;;;;;;5.28;3.97;;;18.20;95.10;;;;;;2090674;28;20058;-94
2022/06/26 02:25:16;;;;;;;5.25;4.30;;;18.20;95.10;;;;;;2106549;28;20036;-94
2022/06/26 02:26:35;;;;;;;4.80;3.80;;;18.20;95.10;;;;;;2118049;28;20032;-94
2022/06/26 02:27:54;;;;;;;4.95;3.95;;;18.20;95.10;;;;;;2107259;28;20028;-95
2022/06/26 02:29:13;;;;;;;6.07;3.95;;;18.20;95.10;;;;;;2095555;28;20536;-94
2022/06/26 02:30:33;;;;;;;5.30;3.92;;;18.30;95.10;;;;;;2103843;28;20028;-94
2022/06/26 02:31:52;;;;;;;5.10;3.95;;;18.20;95.10;;;;;;2103962;28;20031;-94
2022/06/26 02:33:12;;;;;;;5.03;3.58;;;18.20;95.10;;;;;;2101905;28;20060;-94
2022/06/26 02:34:31;;;;;;;4.57;3.63;;;18.20;95.10;;;;;;2087268;28;20041;-94
2022/06/26 02:35:52;;;;;;;5.45;3.83;;;18.20;95.10;;;;;;2100937;28;20024;-95
2022/06/26 02:37:11;;;;;;;4.95;4.03;;;18.20;95.10;;;;;;2107471;28;20039;-95
2022/06/26 02:38:30;;;;;;;4.90;3.65;;;18.20;95.10;;;;;;2098828;28;20419;-95
2022/06/26 02:39:50;;;;;;;4.63;3.80;;;18.10;95.10;;;;;;2087801;28;20045;-95
2022/06/26 02:41:09;;;;;;;4.78;3.78;;;18.10;95.10;;;;;;2083162;28;20260;-95
2022/06/26 02:42:28;;;;;;;5.53;3.60;;;18.10;95.10;;;;;;2095316;28;20091;-95
2022/06/26 02:43:47;;;;;;;6.25;3.60;;;18.10;95.10;;;;;;2095632;28;20029;-96
2022/06/26 02:45:07;;;;;;;4.38;3.20;;;18.10;95.20;;;;;;2087478;28;20033;-94
2022/06/26 02:46:26;;;;;;;5.28;3.70;;;18.10;95.20;;;;;;2101416;28;20024;-95
2022/06/26 02:47:46;;;;;;;4.40;3.22;;;18.00;95.20;;;;;;2090674;28;20036;-94
2022/06/26 02:49:07;;;;;;;4.03;3.13;;;18.10;95.20;;;;;;2101465;28;20502;-94
2022/06/26 02:50:26;;;;;;;4.90;3.25;;;18.00;95.20;;;;;;2100708;28;20037;-95
2022/06/26 02:51:45;;;;;;;4.20;2.95;;;18.00;95.20;;;;;;2101654;28;20033;-95
2022/06/26 02:53:05;;;;;;;5.10;3.50;;;18.00;95.20;;;;;;2116544;27;20024;-93
2022/06/26 02:54:24;;;;;;;4.38;2.92;;;18.00;95.20;;;;;;2124050;28;20032;-96
2022/06/26 02:55:44;;;;;;;3.72;3.00;;;18.00;95.20;;;;;;2098741;28;20029;-93
2022/06/26 02:57:03;;;;;;;3.80;3.10;;;18.00;95.20;;;;;;2109076;28;20478;-94
2022/06/26 02:58:24;;;;;;;4.07;3.22;;;18.00;95.20;;;;;;2115825;28;20470;-94
2022/06/26 02:59:43;;;;;;;4.60;3.50;;;18.00;95.20;;;;;;2106656;28;20032;-95
2022/06/26 03:01:03;;;;;;;4.68;3.42;;;18.00;95.20;;;;;;2112580;28;20027;-95
2022/06/26 03:02:24;;;;;;;5.25;3.22;;;18.00;95.20;;;;;;2115882;28;20039;-94
2022/06/26 03:03:43;;;;;;;5.00;3.42;;;18.00;95.20;;;;;;2106862;28;20032;-94
2022/06/26 03:05:03;;;;;;;4.57;3.20;;;17.90;95.20;;;;;;2095556;28;20044;-94
2022/06/26 03:06:22;;;;;;;5.93;3.35;;;17.90;95.20;;;;;;2100644;28;20033;-94
2022/06/26 03:07:41;;;;;;;4.97;3.47;;;17.90;95.10;;;;;;2103457;28;20036;-95
2022/06/26 03:09:00;;;;;;;5.03;3.53;;;17.90;95.20;;;;;;2086976;28;20037;-96
2022/06/26 03:10:20;;;;;;;4.70;3.75;;;17.90;95.20;;;;;;2092067;28;20040;-95
2022/06/26 03:11:41;;;;;;;4.13;3.17;;;17.90;95.20;;;;;;2092021;28;20044;-95
2022/06/26 03:13:00;;;;;;;5.75;3.60;;;17.90;95.10;;;;;;2087165;28;20032;-95
2022/06/26 03:14:19;;;;;;;4.30;3.33;;;17.90;95.20;;;;;;2089033;28;20036;-93
2022/06/26 03:15:38;;;;;;;5.70;4.00;;;17.90;95.20;;;;;;2100335;28;20064;-96
2022/06/26 03:16:57;;;;;;;5.85;4.10;;;17.80;95.20;;;;;;2086580;28;20029;-95
2022/06/26 03:18:17;;;;;;;4.65;3.65;;;17.80;95.20;;;;;;2086627;28;20037;-94
2022/06/26 03:19:36;;;;;;;5.57;3.83;;;17.80;95.20;;;;;;2091927;28;20119;-94
2022/06/26 03:20:55;;;;;;;5.88;4.28;;;17.80;95.20;;;;;;2095075;28;20064;-95
2022/06/26 03:22:15;;;;;;;5.53;4.25;;;17.80;95.20;;;;;;2086572;28;20029;-94
2022/06/26 03:25:13;;;;;;;6.70;5.45;;;17.80;95.20;;;;;;2096945;28;20064;-95
2022/06/26 03:26:37;;;;;;;7.68;4.65;;;17.80;95.20;;;;;;2106568;28;20040;-94
2022/06/26 03:27:56;;;;;;;5.63;4.72;;;17.80;95.20;;;;;;2098321;28;20029;-95
2022/06/26 03:29:15;;;;;;;6.18;4.80;;;17.70;95.20;;;;;;2095138;28;20402;-95
2022/06/26 03:30:35;;;;;;;5.68;4.38;;;17.70;95.20;;;;;;2095149;28;20050;-95
2022/06/26 03:31:55;;;;;;;6.25;4.82;;;17.70;95.20;;;;;;2103908;28;20063;-96
2022/06/26 03:33:14;;;;;;;6.43;4.68;;;17.70;95.20;;;;;;2093633;28;20124;-95
2022/06/26 03:34:33;;;;;;;5.95;4.78;;;17.70;95.20;;;;;;2099985;28;20036;-95
2022/06/26 03:35:52;;;;;;;5.95;4.55;;;17.70;95.20;;;;;;2095035;28;20115;-95
2022/06/26 03:37:12;;;;;;;6.53;5.00;;;17.70;95.20;;;;;;2092126;28;20549;-95
2022/06/26 03:38:31;;;;;;;6.00;4.50;;;17.70;95.20;;;;;;2100399;28;20028;-95
2022/06/26 03:39:50;;;;;;;6.68;5.20;;;17.70;95.20;;;;;;2103613;28;20039;-95
2022/06/26 03:41:11;;;;;;;6.80;5.00;;;17.70;95.20;;;;;;2087656;28;20025;-96
2022/06/26 03:42:30;;;;;;;;;;;17.70;95.20;;;;;;2092860;28;20107;-95
2022/06/26 03:43:50;;;;;;;5.68;4.28;;;17.70;95.10;;;;;;2102772;28;19908;-96
2022/06/26 03:45:10;;;;;;;5.75;4.50;;;17.70;95.10;;;;;;2103545;28;20044;-95
2022/06/26 03:46:29;;;;;;;6.33;4.73;;;17.70;95.10;;;;;;2106862;28;20033;-95
2022/06/26 03:47:48;;;;;;;6.40;4.80;;;17.70;95.10;;;;;;2098349;28;20263;-94
2022/06/26 03:49:07;;;;;;;7.55;5.20;;;17.80;95.20;;;;;;2100140;28;20044;-95
2022/06/26 03:50:26;;;;;;;6.95;5.32;;;17.70;95.10;;;;;;2102929;28;20036;-95
2022/06/26 03:51:46;;;;;;;6.78;5.40;;;17.80;95.20;;;;;;2086741;28;20036;-95
2022/06/26 03:53:05;;;;;;;6.28;5.38;;;17.80;95.20;;;;;;2088224;28;20028;-94
2022/06/26 03:54:25;;;;;;;6.57;5.22;;;17.80;95.20;;;;;;2093566;28;20037;-95
2022/06/26 03:55:44;;;;;;;6.28;5.15;;;17.80;95.20;;;;;;2097097;28;20511;-95
2022/06/26 03:57:04;;;;;;;8.40;5.82;;;17.70;95.10;;;;;;2096724;28;20028;-95
2022/06/26 03:58:24;;;;;;;6.68;5.25;;;17.70;95.10;;;;;;2096721;28;20068;-95
2022/06/26 03:59:43;;;;;;;7.60;5.32;;;17.70;95.10;;;;;;2104978;28;20036;-96
2022/06/26 04:01:02;;;;;;;6.85;5.18;;;17.70;95.20;;;;;;2099934;28;20067;-95
2022/06/26 04:02:22;;;;;;;6.95;5.38;;;17.70;95.20;;;;;;2099818;28;20052;-94
2022/06/26 04:03:41;;;;;;;7.22;5.78;;;17.70;95.20;;;;;;2096666;28;20033;-95
2022/06/26 04:05:01;;;;;;;6.85;5.38;;;17.70;95.20;;;;;;2096682;28;20028;-94
2022/06/26 04:06:20;;;;;;;7.00;5.65;;;17.70;95.10;;;;;;2100083;28;20037;-94
2022/06/26 04:07:39;;;;;;;6.50;5.32;;;17.70;95.10;;;;;;2100543;28;20064;-95
2022/06/26 04:08:58;;;;;;;7.63;5.50;;;17.70;95.10;;;;;;2088242;28;20469;-95
2022/06/26 04:10:18;;;;;;;7.10;5.32;;;17.70;95.10;;;;;;2088434;28;20095;-94
2022/06/26 04:11:37;;;;;;;7.68;5.50;;;17.70;95.40;;;;;;2085368;28;20037;-95
2022/06/26 04:13:01;;;;;;;7.43;5.70;;;17.70;95.10;;;;;;2093280;28;20025;-95
2022/06/26 04:14:21;;;;;;;7.05;5.40;;;17.70;95.10;;;;;;2097203;28;20036;-95
2022/06/26 04:15:40;;;;;;;8.55;6.20;;;17.70;95.10;;;;;;2096621;28;20041;-95
2022/06/26 04:17:01;;;;;;;7.75;5.85;;;17.70;95.10;;;;;;2096666;28;20036;-94
2022/06/26 04:18:20;;;;;;;8.38;6.25;;;17.70;95.10;;;;;;2096729;28;20469;-95
2022/06/26 04:19:39;;;;;;;8.20;6.43;;;17.60;95.00;;;;;;2096751;28;20036;-96
2022/06/26 04:20:58;;;;;;;9.70;6.40;;;17.60;95.00;;;;;;2096554;28;20119;-96
2022/06/26 04:22:18;;;;;;;9.73;6.55;;;17.60;95.00;;;;;;2098164;28;20025;-96
2022/06/26 04:23:38;;;;;;;9.68;6.50;;;17.60;95.00;;;;;;2098748;28;20029;-95
2022/06/26 04:24:58;;;;;;;9.52;6.85;;;17.60;95.00;;;;;;2090598;28;20112;-94
2022/06/26 04:26:17;;;;;;;9.70;7.18;;;17.60;95.00;;;;;;2093731;28;20032;-95
2022/06/26 04:27:38;;;;;;;9.40;6.78;;;17.60;95.00;;;;;;2100196;28;20063;-95
2022/06/26 04:28:57;;;;;;;9.68;6.78;;;17.60;95.00;;;;;;2083287;28;20049;-95
2022/06/26 04:30:17;;;;;;;10.07;6.63;;;17.60;95.00;;;;;;2090750;28;20115;-96
2022/06/26 04:31:36;;;;;;;8.48;6.47;;;17.50;95.00;;;;;;2098542;28;20025;-95
2022/06/26 04:32:55;;;;;;;8.48;6.35;;;17.50;94.90;;;;;;2095114;28;20061;-96
2022/06/26 04:34:15;;;;;;;9.45;6.95;;;17.50;94.90;;;;;;2097893;28;20033;-95
2022/06/26 04:35:34;;;;;;;10.25;6.78;;;17.50;94.90;;;;;;2089360;28;20033;-96
2022/06/26 04:36:54;;;;;;;9.60;7.13;;;17.50;94.90;;;;;;2089743;28;20473;-96
2022/06/26 04:38:13;;;;;;;9.13;6.68;;;17.50;94.90;;;;;;2081569;28;20026;-96
2022/06/26 04:39:32;;;;;;;9.55;7.22;;;17.40;94.90;;;;;;2078041;28;20041;-96
2022/06/26 04:40:51;;;;;;;10.40;7.03;;;17.40;94.90;;;;;;2091639;28;20335;-95
2022/06/26 04:42:11;;;;;;;8.18;6.18;;;17.30;94.90;;;;;;2088557;28;20030;-95
2022/06/26 04:43:30;;;;;;;9.55;6.35;;;17.30;94.90;;;;;;2097748;28;20029;-95
2022/06/26 04:44:50;;;;;;;8.05;5.97;;;17.30;94.90;;;;;;2089179;28;20033;-96
2022/06/26 04:46:09;;;;;;;8.30;6.03;;;17.30;95.20;;;;;;2088359;28;20025;-96
2022/06/26 04:47:28;;;;;;;9.55;6.03;;;17.30;94.90;;;;;;2088584;28;20090;-96
2022/06/26 04:48:47;;;;;;;8.77;5.90;;;17.30;94.90;;;;;;2101683;28;20040;-96
2022/06/26 04:50:07;;;;;;;7.55;5.75;;;17.30;94.90;;;;;;2091307;28;20500;-96
2022/06/26 04:51:26;;;;;;;8.18;6.43;;;17.40;94.90;;;;;;2083579;28;20112;-96
2022/06/26 04:52:47;;;;;;;8.60;5.63;;;17.40;94.90;;;;;;2095559;28;20029;-96
2022/06/26 04:54:08;;;;;;;8.52;5.93;;;17.40;94.80;;;;;;2100756;28;20037;-90
2022/06/26 04:55:28;;;;;;;8.45;5.95;;;17.50;94.80;;;;;;2096945;28;20094;-96
2022/06/26 04:56:48;;;;;;;7.80;5.78;;;17.50;94.70;;;;;;2100216;28;20040;-96
2022/06/26 04:58:07;;;;;;;7.80;5.78;;;17.50;94.70;;;;;;2094812;28;20401;-96
2022/06/26 04:59:26;;;;;;;8.35;5.63;;;17.60;94.70;;;;;;2091708;28;20029;-94
2022/06/26 05:00:45;;;;;;;7.90;5.72;;;17.60;94.70;;;;;;2096704;28;20036;-91
2022/06/26 05:02:07;;;;;;;8.23;6.50;;;17.60;94.70;;;;;;2098031;28;20025;-84
2022/06/26 05:03:26;;;;;;;9.32;6.30;;;17.60;94.60;;;;;;2095408;28;20017;-86
2022/06/26 05:04:45;;;;;;;9.35;6.18;;;17.60;94.50;;;;;;2089287;28;20021;-93
2022/06/26 05:06:05;;;;;;;9.27;6.50;;;17.60;94.50;;;;;;2086247;28;20014;-95
2022/06/26 05:07:24;;;;;;;9.43;7.00;;;17.60;94.60;;;;;;2091343;28;20021;-96
2022/06/26 05:08:43;;;;;;;9.70;6.55;;;17.60;94.60;;;;;;2092425;28;20033;-96
2022/06/26 05:10:03;;;;;;;8.90;6.68;;;17.50;94.60;;;;;;2097074;28;20036;-96
2022/06/26 05:11:23;;;;;;;10.30;6.55;;;17.50;94.60;;;;;;2094334;28;20084;-95
2022/06/26 05:12:42;;;;;;;10.07;6.95;;;17.50;94.60;;;;;;2089136;28;20033;-96
2022/06/26 05:14:01;;;;;;;9.45;6.85;;;17.50;94.60;;;;;;2078120;28;20033;-96
2022/06/26 05:15:20;;;;;;;9.57;6.63;;;17.40;94.60;;;;;;2099260;28;20040;-96
2022/06/26 05:16:39;;;;;;;10.63;7.03;;;17.40;94.70;;;;;;2092387;28;20037;-95
2022/06/26 05:17:58;;;;;;;9.55;6.22;;;17.40;94.70;;;;;;2094435;28;20020;-96
2022/06/26 05:19:18;;;;;;;9.05;6.35;;;17.40;94.60;;;;;;2090141;28;20037;-96
2022/06/26 05:20:37;;;;;;;8.93;6.82;;;17.40;94.60;;;;;;2089016;28;20037;-94
2022/06/26 05:21:56;;;;;;;9.88;6.53;;;17.40;94.60;;;;;;2094800;28;20036;-96
2022/06/26 05:23:16;;;;;;;8.02;6.30;;;17.40;94.60;;;;;;2095517;28;20032;-96
2022/06/26 05:24:36;;;;;;;8.25;6.15;;;17.40;94.60;;;;;;2095741;28;20066;-95
2022/06/26 05:25:55;;;;;;;7.50;5.82;;;17.40;94.60;;;;;;2095923;28;20033;-96
2022/06/26 05:27:14;;;;;;;10.45;6.65;;;17.40;94.60;;;;;;2095774;28;20040;-94
2022/06/26 05:28:34;;;;;;;8.25;6.10;;;17.40;94.60;;;;;;2083856;28;20108;-96
2022/06/26 05:29:53;;;;;;;9.82;6.90;;;17.40;94.60;;;;;;2081872;28;20033;-96
2022/06/26 05:31:12;;;;;;;8.35;6.10;;;17.40;94.60;;;;;;2081513;28;20041;-95
2022/06/26 05:32:31;;;;;;;9.23;6.32;;;17.40;94.60;;;;;;2084534;28;20083;-96
2022/06/26 05:33:51;;;;;;;9.10;6.18;;;17.40;94.60;;;;;;2084969;28;20040;-96
2022/06/26 05:35:10;;;;;;;7.95;5.85;;;17.40;94.60;;;;;;2097166;28;20036;-96
2022/06/26 05:36:29;;;;;;;7.90;5.47;;;17.50;94.50;;;;;;2088881;28;20033;-96
2022/06/26 05:37:49;;;;;;;9.18;6.22;;;17.50;94.50;;;;;;2089401;28;20041;-96
2022/06/26 05:39:08;;;;;;;8.27;5.65;;;17.50;94.50;;;;;;2088651;28;20387;-96
2022/06/26 05:40:28;;;;;;;7.85;5.68;;;17.50;94.50;;;;;;2095343;28;20060;-96
2022/06/26 05:41:47;;;;;;;8.25;5.68;;;17.40;94.40;;;;;;2098206;28;20048;-96
2022/06/26 05:43:05;;;;;;;8.23;5.63;;;17.50;94.50;;;;;;2082113;28;20042;-96
2022/06/26 05:44:24;;;;;;;;;;;17.50;94.50;;;;;;2085054;28;20029;-96
2022/06/26 05:45:44;;;;;;;7.47;5.25;;;17.50;94.40;;;;;;2096219;28;19912;-96
2022/06/26 05:47:04;;;;;;;7.82;5.43;;;17.50;94.70;;;;;;2090806;28;20029;-96
2022/06/26 05:48:25;;;;;;;7.93;5.70;;;17.60;94.40;;;;;;2095925;28;20040;-96
2022/06/26 05:49:45;;;;;;;8.40;5.82;;;17.60;94.40;;;;;;2108225;28;20024;-96
2022/06/26 05:51:24;;;;;;;9.88;6.07;;;17.60;94.30;;;;;;2098837;28;20029;-96
2022/06/26 05:52:49;;;;;;;8.07;5.82;;;17.60;94.30;;;;;;2106001;28;20060;-96
2022/06/26 05:54:09;;;;;;;9.25;5.97;;;17.70;94.20;;;;;;2105173;28;20024;-96
2022/06/26 05:55:50;;;;;;;7.88;5.45;;;17.60;94.20;;;;;;2114098;28;20036;-96
2022/06/26 05:57:12;;;;;;;8.02;5.45;;;17.70;94.20;;;;;;2115660;28;20043;-96
2022/06/26 05:58:32;;;;;;;8.38;5.78;;;17.70;94.20;;;;;;2096602;28;20025;-96
2022/06/26 06:00:00;;;;;;;7.80;5.60;;;17.80;94.10;;;;;;2106463;28;20040;-89
2022/06/26 06:01:39;;;;;;;7.90;5.70;;;17.90;94.10;;;;;;2115364;28;20020;-96
2022/06/26 06:03:06;;;;;;;8.50;6.07;;;17.80;94.00;;;;;;2108824;28;20040;-85
2022/06/26 06:06:43;;;;;;;6.72;4.95;;;17.90;93.90;;;;;;2117847;28;20008;-96
2022/06/26 06:08:24;;;;;;;8.55;4.75;;;17.90;93.90;;;;;;2107285;28;20088;-96
2022/06/26 06:09:44;;;;;;;6.85;5.05;;;17.90;93.80;;;;;;2113251;28;20032;-96
2022/06/26 06:11:27;;;;;;;8.05;5.63;;;18.00;93.80;;;;;;2114102;28;20083;-96
2022/06/26 06:12:44;;;;;;;7.15;4.85;;;18.00;93.70;;;;;;2096266;22;20061;-96
2022/06/26 06:14:03;;;;;;;7.87;5.63;;;18.00;93.60;;;;;;2086925;28;20025;-96
2022/06/26 06:15:23;;;;;;;8.07;5.35;;;18.10;93.60;;;;;;2085150;28;20360;-96
2022/06/26 06:16:43;;;;;;;6.95;5.32;;;18.30;93.50;;;;;;2087009;28;20085;-96
2022/06/26 06:18:02;;;;;;;6.47;5.00;;;18.40;93.40;;;;;;2095801;28;20064;-96
2022/06/26 06:19:24;;;;;;;6.60;4.78;;;18.50;93.30;;;;;;2089154;28;20253;-90
2022/06/26 06:20:45;;;;;;;6.38;4.85;;;18.50;93.10;;;;;;2092478;28;20009;-81
2022/06/26 06:22:05;;;;;;;7.18;5.05;;;18.50;93.10;;;;;;2092427;28;20049;-82
2022/06/26 06:23:24;;;;;;;6.65;5.15;;;18.60;93.00;;;;;;2094025;28;20025;-95
2022/06/26 06:24:44;;;;;;;7.57;5.32;;;18.70;92.90;;;;;;2105383;28;20025;-96
2022/06/26 06:26:03;;;;;;;6.65;5.25;;;18.70;92.80;;;;;;2100588;28;20072;-96
2022/06/26 06:27:22;;;;;;;6.53;4.63;;;18.80;92.70;;;;;;2097234;28;20037;-94
2022/06/26 06:28:42;;;;;;;6.78;4.88;;;18.90;92.60;;;;;;2097405;28;20061;-87
2022/06/26 06:30:03;;;;;;;6.50;4.88;;;18.90;92.50;;;;;;2100953;28;20017;-80
2022/06/26 06:31:22;;;;;;;7.18;5.00;;;18.90;92.60;;;;;;2100626;28;20036;-81
2022/06/26 06:32:42;;;;;;;8.32;5.15;;;19.00;92.50;;;;;;2097676;28;20037;-81
2022/06/26 06:34:01;;;;;;;6.30;4.65;;;19.10;92.40;;;;;;2097673;28;20033;-82
2022/06/26 06:36:19;;;;;;;6.32;4.10;;;19.10;92.30;;;;;;2059338;28;20024;-83
2022/06/26 07:10:31;;;;;;;5.60;3.22;;;19.80;91.00;;;;;;2098878;28;20061;-94
2022/06/26 07:11:51;;;;;;;3.90;2.63;;;19.90;91.00;;;;;;2090466;28;20037;-96
2022/06/26 07:13:11;;;;;;;3.83;2.85;;;19.90;91.00;;;;;;2087694;28;20041;-92
2022/06/26 07:14:30;;;;;;;4.78;2.97;;;20.00;90.90;;;;;;2083129;28;20018;-84
2022/06/26 07:15:41;;;;;;;3.78;2.65;;;20.00;90.90;;;;;;2205392;23;20059;-92
2022/06/26 07:17:00;;;;;;;4.53;2.92;;;20.00;90.80;;;;;;2089833;28;20056;-91
2022/06/26 07:18:22;;;;;;;4.05;2.80;;;20.10;90.70;;;;;;2086863;28;20481;-91
2022/06/26 07:19:41;;;;;;;4.13;2.85;;;20.10;90.60;;;;;;2087151;28;20037;-91
2022/06/26 07:21:00;;;;;;;4.00;2.60;;;20.20;90.60;;;;;;2084095;28;20438;-91
2022/06/26 07:22:19;;;;;;;4.40;2.80;;;20.20;90.50;;;;;;2083787;28;20590;-91
2022/06/26 07:23:39;;;;;;;4.18;2.40;;;20.20;90.40;;;;;;2083716;28;20487;-91
2022/06/26 07:24:58;;;;;;;3.92;2.15;;;20.30;90.30;;;;;;2083588;28;20041;-91
2022/06/26 07:26:18;;;;;;;3.80;2.13;;;20.40;90.20;;;;;;2083691;28;20041;-91
2022/06/26 07:27:37;;;;;;;3.28;2.10;;;20.50;90.10;;;;;;2084252;28;20461;-91
2022/06/26 07:28:56;;;;;;;2.60;1.80;;;20.60;90.00;;;;;;2085041;28;20053;-90
2022/06/26 07:30:16;;;;;;;2.20;1.60;;;20.70;89.80;;;;;;2080089;28;20045;-91
2022/06/26 07:31:35;;;;;;;2.65;1.80;;;20.80;89.50;;;;;;2079024;28;20042;-91
2022/06/26 07:32:55;;;;;;;3.20;1.80;;;20.80;89.10;;;;;;2085316;28;20033;-91
2022/06/26 07:34:16;;;;;;;4.10;1.90;;;20.90;88.90;;;;;;2083626;28;20037;-91
2022/06/26 07:35:35;;;;;;;3.25;1.83;;;21.00;88.70;;;;;;2085898;28;20113;-91
2022/06/26 07:36:54;;;;;;;3.67;2.15;;;21.00;88.40;;;;;;2083437;28;20033;-91
2022/06/26 07:38:14;;;;;;;3.22;1.95;;;21.00;88.20;;;;;;2077241;28;20097;-91
2022/06/26 07:39:33;;;;;;;4.07;1.80;;;21.10;88.00;;;;;;2088311;28;20033;-92
2022/06/26 07:40:52;;;;;;;3.78;1.67;;;21.10;87.80;;;;;;2080226;28;20046;-92
2022/06/26 07:42:12;;;;;;;2.83;1.50;;;21.10;87.50;;;;;;2080256;28;20038;-91